sensor_id;sensor_type;location;lat;lon;timestamp;pressure;altitude;pressure_sealevel;temperature;humidity
21658;BME280;10990;48.174;9.782;2023-08-06T00:01:55;93060.19;;;15.10;100.00
21658;BME280;10990;48.174;9.782;2023-08-06T00:04:22;93066.22;;;15.06;100.00
21658;BME280;10990;48.174;9.782;2023-08-06T00:06:49;93061.47;;;15.08;100.00
21658;BME280;10990;48.174;9.782;2023-08-06T00:09:15;93073.28;;;15.00;100.00
21658;BME280;10990;48.174;9.782;2023-08-06T00:11:43;93060.41;;;15.09;100.00
21658;BME280;10990;48.174;9.782;2023-08-06T00:14:12;93061.53;;;14.96;100.00
21658;BME280;10990;48.174;9.782;2023-08-06T00:16:43;93057.69;;;15.04;100.00
21658;BME280;10990;48.174;9.782;2023-08-06T00:19:09;93078.59;;;14.83;100.00
21658;BME280;10990;48.174;9.782;2023-08-06T00:21:36;93065.13;;;14.73;100.00
21658;BME280;10990;48.174;9.782;2023-08-06T00:24:03;93064.00;;;14.86;100.00
21658;BME280;10990;48.174;9.782;2023-08-06T00:26:29;93048.78;;;14.81;100.00
21658;BME280;10990;48.174;9.782;2023-08-06T00:28:56;93035.88;;;14.90;100.00
21658;BME280;10990;48.174;9.782;2023-08-06T00:31:23;93029.91;;;14.83;100.00
21658;BME280;10990;48.174;9.782;2023-08-06T00:33:51;93019.56;;;14.86;100.00
21658;BME280;10990;48.174;9.782;2023-08-06T00:36:17;93015.88;;;14.70;100.00
21658;BME280;10990;48.174;9.782;2023-08-06T00:38:44;92986.91;;;14.74;100.00
21658;BME280;10990;48.174;9.782;2023-08-06T00:41:11;92971.06;;;14.79;100.00
21658;BME280;10990;48.174;9.782;2023-08-06T00:43:38;92960.00;;;14.70;100.00
21658;BME280;10990;48.174;9.782;2023-08-06T00:46:04;92950.97;;;14.71;100.00
21658;BME280;10990;48.174;9.782;2023-08-06T00:48:32;92942.75;;;14.56;100.00
21658;BME280;10990;48.174;9.782;2023-08-06T00:51:01;92932.44;;;14.60;100.00
21658;BME280;10990;48.174;9.782;2023-08-06T00:53:28;92919.28;;;14.53;100.00
21658;BME280;10990;48.174;9.782;2023-08-06T00:55:55;92908.19;;;14.44;100.00
21658;BME280;10990;48.174;9.782;2023-08-06T00:58:22;92898.78;;;14.37;100.00
21658;BME280;10990;48.174;9.782;2023-08-06T01:00:49;92883.78;;;14.30;100.00
21658;BME280;10990;48.174;9.782;2023-08-06T01:03:15;92882.97;;;14.30;100.00
21658;BME280;10990;48.174;9.782;2023-08-06T01:05:42;92866.38;;;14.23;100.00
21658;BME280;10990;48.174;9.782;2023-08-06T01:08:20;92842.78;;;14.26;100.00
21658;BME280;10990;48.174;9.782;2023-08-06T01:10:57;92835.50;;;14.22;100.00
21658;BME280;10990;48.174;9.782;2023-08-06T01:13:33;92847.59;;;14.12;100.00
21658;BME280;10990;48.174;9.782;2023-08-06T01:16:03;92847.56;;;13.96;100.00
21658;BME280;10990;48.174;9.782;2023-08-06T01:18:30;92836.56;;;14.04;100.00
21658;BME280;10990;48.174;9.782;2023-08-06T01:20:59;92833.41;;;13.90;100.00
21658;BME280;10990;48.174;9.782;2023-08-06T01:23:25;92804.34;;;13.83;100.00
21658;BME280;10990;48.174;9.782;2023-08-06T01:25:56;92787.59;;;13.83;100.00
21658;BME280;10990;48.174;9.782;2023-08-06T01:28:31;92769.63;;;13.73;100.00
21658;BME280;10990;48.174;9.782;2023-08-06T01:31:02;92747.97;;;13.81;100.00
21658;BME280;10990;48.174;9.782;2023-08-06T01:33:32;92735.34;;;13.72;100.00
21658;BME280;10990;48.174;9.782;2023-08-06T01:36:04;92716.41;;;13.68;100.00
21658;BME280;10990;48.174;9.782;2023-08-06T01:38:32;92691.09;;;13.77;100.00
21658;BME280;10990;48.174;9.782;2023-08-06T01:40:59;92675.88;;;13.73;100.00
21658;BME280;10990;48.174;9.782;2023-08-06T01:43:25;92665.31;;;13.78;100.00
21658;BME280;10990;48.174;9.782;2023-08-06T01:45:52;92655.72;;;13.77;100.00
21658;BME280;10990;48.174;9.782;2023-08-06T01:48:18;92644.31;;;13.76;100.00
21658;BME280;10990;48.174;9.782;2023-08-06T01:50:45;92635.81;;;13.74;100.00
21658;BME280;10990;48.174;9.782;2023-08-06T01:53:13;92619.03;;;13.74;100.00
21658;BME280;10990;48.174;9.782;2023-08-06T01:55:40;92605.84;;;13.79;100.00
21658;BME280;10990;48.174;9.782;2023-08-06T01:58:06;92596.19;;;13.73;100.00
21658;BME280;10990;48.174;9.782;2023-08-06T02:00:33;92593.13;;;13.81;100.00
21658;BME280;10990;48.174;9.782;2023-08-06T02:03:00;92583.56;;;13.80;100.00
21658;BME280;10990;48.174;9.782;2023-08-06T02:05:27;92570.81;;;13.82;100.00
21658;BME280;10990;48.174;9.782;2023-08-06T02:07:53;92572.72;;;13.64;100.00
21658;BME280;10990;48.174;9.782;2023-08-06T02:10:21;92561.19;;;13.76;100.00
21658;BME280;10990;48.174;9.782;2023-08-06T02:12:48;92559.81;;;13.73;100.00
21658;BME280;10990;48.174;9.782;2023-08-06T02:15:15;92547.34;;;13.74;100.00
21658;BME280;10990;48.174;9.782;2023-08-06T02:17:41;92543.47;;;13.81;100.00
21658;BME280;10990;48.174;9.782;2023-08-06T02:20:09;92538.41;;;13.80;100.00
21658;BME280;10990;48.174;9.782;2023-08-06T02:22:36;92532.28;;;13.79;100.00
21658;BME280;10990;48.174;9.782;2023-08-06T02:25:03;92530.19;;;13.81;100.00
21658;BME280;10990;48.174;9.782;2023-08-06T02:27:31;92519.56;;;13.81;100.00
21658;BME280;10990;48.174;9.782;2023-08-06T02:29:57;92529.56;;;13.74;100.00
21658;BME280;10990;48.174;9.782;2023-08-06T02:32:24;92520.34;;;13.82;100.00
21658;BME280;10990;48.174;9.782;2023-08-06T02:34:51;92518.13;;;13.74;100.00
21658;BME280;10990;48.174;9.782;2023-08-06T02:37:18;92522.13;;;13.76;100.00
21658;BME280;10990;48.174;9.782;2023-08-06T02:39:45;92526.41;;;13.77;100.00
21658;BME280;10990;48.174;9.782;2023-08-06T02:42:12;92524.25;;;13.74;100.00
21658;BME280;10990;48.174;9.782;2023-08-06T02:44:40;92541.00;;;13.75;100.00
21658;BME280;10990;48.174;9.782;2023-08-06T02:47:07;92557.66;;;13.70;100.00
21658;BME280;10990;48.174;9.782;2023-08-06T02:49:34;92568.38;;;13.58;100.00
21658;BME280;10990;48.174;9.782;2023-08-06T02:52:00;92578.31;;;13.68;100.00
21658;BME280;10990;48.174;9.782;2023-08-06T02:54:27;92584.47;;;13.68;100.00
21658;BME280;10990;48.174;9.782;2023-08-06T02:56:54;92596.59;;;13.64;100.00
21658;BME280;10990;48.174;9.782;2023-08-06T02:59:28;92605.63;;;13.63;100.00
21658;BME280;10990;48.174;9.782;2023-08-06T03:02:18;92609.50;;;13.56;100.00
21658;BME280;10990;48.174;9.782;2023-08-06T03:04:58;92618.75;;;13.53;100.00
21658;BME280;10990;48.174;9.782;2023-08-06T03:07:29;92628.78;;;13.51;100.00
21658;BME280;10990;48.174;9.782;2023-08-06T03:10:04;92629.75;;;13.45;100.00
21658;BME280;10990;48.174;9.782;2023-08-06T03:12:30;92649.88;;;13.41;100.00
21658;BME280;10990;48.174;9.782;2023-08-06T03:14:59;92652.53;;;13.41;100.00
21658;BME280;10990;48.174;9.782;2023-08-06T03:17:27;92662.75;;;13.32;100.00
21658;BME280;10990;48.174;9.782;2023-08-06T03:19:54;92669.19;;;13.36;100.00
21658;BME280;10990;48.174;9.782;2023-08-06T03:22:22;92680.84;;;13.35;100.00
21658;BME280;10990;48.174;9.782;2023-08-06T03:24:50;92681.25;;;13.27;100.00
21658;BME280;10990;48.174;9.782;2023-08-06T03:27:18;92683.41;;;13.30;100.00
21658;BME280;10990;48.174;9.782;2023-08-06T03:29:48;92692.66;;;13.28;100.00
21658;BME280;10990;48.174;9.782;2023-08-06T03:32:16;92707.81;;;13.15;100.00
21658;BME280;10990;48.174;9.782;2023-08-06T03:34:45;92695.34;;;13.16;100.00
21658;BME280;10990;48.174;9.782;2023-08-06T03:37:13;92710.09;;;13.12;100.00
21658;BME280;10990;48.174;9.782;2023-08-06T03:39:40;92720.59;;;12.90;100.00
21658;BME280;10990;48.174;9.782;2023-08-06T03:42:06;92714.94;;;12.86;100.00
21658;BME280;10990;48.174;9.782;2023-08-06T03:44:33;92701.19;;;12.89;100.00
21658;BME280;10990;48.174;9.782;2023-08-06T03:47:00;92704.69;;;12.78;100.00
21658;BME280;10990;48.174;9.782;2023-08-06T03:49:26;92695.09;;;12.89;100.00
21658;BME280;10990;48.174;9.782;2023-08-06T03:51:54;92687.88;;;12.84;100.00
21658;BME280;10990;48.174;9.782;2023-08-06T03:54:21;92673.66;;;12.90;100.00
21658;BME280;10990;48.174;9.782;2023-08-06T03:56:48;92669.81;;;12.98;100.00
21658;BME280;10990;48.174;9.782;2023-08-06T03:59:16;92670.63;;;12.98;100.00
21658;BME280;10990;48.174;9.782;2023-08-06T04:01:44;92672.69;;;12.96;100.00
21658;BME280;10990;48.174;9.782;2023-08-06T04:04:10;92653.59;;;13.11;100.00
21658;BME280;10990;48.174;9.782;2023-08-06T04:06:37;92651.75;;;13.12;100.00
21658;BME280;10990;48.174;9.782;2023-08-06T04:09:05;92642.19;;;13.11;100.00
21658;BME280;10990;48.174;9.782;2023-08-06T04:11:31;92617.13;;;13.18;100.00
21658;BME280;10990;48.174;9.782;2023-08-06T04:13:58;92628.44;;;13.14;100.00
21658;BME280;10990;48.174;9.782;2023-08-06T04:16:25;92607.97;;;13.26;100.00
21658;BME280;10990;48.174;9.782;2023-08-06T04:18:52;92607.38;;;13.24;100.00
21658;BME280;10990;48.174;9.782;2023-08-06T04:21:20;92596.16;;;13.34;100.00
21658;BME280;10990;48.174;9.782;2023-08-06T04:23:47;92579.19;;;13.52;100.00
21658;BME280;10990;48.174;9.782;2023-08-06T04:26:15;92574.91;;;13.51;100.00
21658;BME280;10990;48.174;9.782;2023-08-06T04:28:43;92574.28;;;13.43;100.00
21658;BME280;10990;48.174;9.782;2023-08-06T04:31:10;92573.22;;;13.44;100.00
21658;BME280;10990;48.174;9.782;2023-08-06T04:33:39;92554.72;;;13.50;100.00
21658;BME280;10990;48.174;9.782;2023-08-06T04:36:09;92547.06;;;13.53;100.00
21658;BME280;10990;48.174;9.782;2023-08-06T04:38:35;92544.97;;;13.55;100.00
21658;BME280;10990;48.174;9.782;2023-08-06T04:41:02;92540.47;;;13.56;100.00
21658;BME280;10990;48.174;9.782;2023-08-06T04:43:30;92541.72;;;13.70;100.00
21658;BME280;10990;48.174;9.782;2023-08-06T04:45:57;92536.03;;;13.61;100.00
21658;BME280;10990;48.174;9.782;2023-08-06T04:48:24;92523.53;;;13.62;100.00
21658;BME280;10990;48.174;9.782;2023-08-06T04:50:51;92518.81;;;13.64;100.00
21658;BME280;10990;48.174;9.782;2023-08-06T04:53:17;92506.69;;;13.73;100.00
21658;BME280;10990;48.174;9.782;2023-08-06T04:55:44;92514.56;;;13.63;100.00
21658;BME280;10990;48.174;9.782;2023-08-06T04:58:12;92521.31;;;13.54;100.00
21658;BME280;10990;48.174;9.782;2023-08-06T05:00:40;92499.78;;;13.72;100.00
21658;BME280;10990;48.174;9.782;2023-08-06T05:03:07;92501.09;;;13.70;100.00
21658;BME280;10990;48.174;9.782;2023-08-06T05:05:33;92502.88;;;13.64;100.00
21658;BME280;10990;48.174;9.782;2023-08-06T05:08:00;92513.19;;;13.60;100.00
21658;BME280;10990;48.174;9.782;2023-08-06T05:10:27;92505.72;;;13.57;100.00
21658;BME280;10990;48.174;9.782;2023-08-06T05:12:54;92485.69;;;13.50;100.00
21658;BME280;10990;48.174;9.782;2023-08-06T05:15:21;92477.47;;;13.51;100.00
21658;BME280;10990;48.174;9.782;2023-08-06T05:17:49;92474.28;;;13.49;100.00
21658;BME280;10990;48.174;9.782;2023-08-06T05:20:16;92482.09;;;13.39;100.00
21658;BME280;10990;48.174;9.782;2023-08-06T05:22:43;92460.28;;;13.37;100.00
21658;BME280;10990;48.174;9.782;2023-08-06T05:25:13;92450.25;;;13.39;100.00
21658;BME280;10990;48.174;9.782;2023-08-06T05:27:39;92429.56;;;13.41;100.00
21658;BME280;10990;48.174;9.782;2023-08-06T05:30:07;92394.69;;;13.54;100.00
21658;BME280;10990;48.174;9.782;2023-08-06T05:32:34;92390.63;;;13.47;100.00
21658;BME280;10990;48.174;9.782;2023-08-06T05:35:02;92382.75;;;13.57;100.00
21658;BME280;10990;48.174;9.782;2023-08-06T05:37:29;92389.88;;;13.51;100.00
21658;BME280;10990;48.174;9.782;2023-08-06T05:39:56;92388.19;;;13.67;100.00
21658;BME280;10990;48.174;9.782;2023-08-06T05:42:22;92387.03;;;13.58;100.00
21658;BME280;10990;48.174;9.782;2023-08-06T05:44:49;92409.50;;;13.50;100.00
21658;BME280;10990;48.174;9.782;2023-08-06T05:47:16;92406.91;;;13.55;100.00
21658;BME280;10990;48.174;9.782;2023-08-06T05:49:42;92400.91;;;13.65;100.00
21658;BME280;10990;48.174;9.782;2023-08-06T05:52:10;92395.16;;;13.73;100.00
21658;BME280;10990;48.174;9.782;2023-08-06T05:54:37;92399.59;;;14.17;100.00
21658;BME280;10990;48.174;9.782;2023-08-06T05:57:04;92402.09;;;14.28;100.00
21658;BME280;10990;48.174;9.782;2023-08-06T05:59:31;92398.25;;;14.73;100.00
21658;BME280;10990;48.174;9.782;2023-08-06T06:01:58;92395.97;;;15.40;100.00
21658;BME280;10990;48.174;9.782;2023-08-06T06:04:25;92424.91;;;15.68;100.00
21658;BME280;10990;48.174;9.782;2023-08-06T06:06:51;92458.78;;;15.83;100.00
21658;BME280;10990;48.174;9.782;2023-08-06T06:09:19;92487.47;;;16.34;100.00
21658;BME280;10990;48.174;9.782;2023-08-06T06:11:46;92544.53;;;16.33;100.00
21658;BME280;10990;48.174;9.782;2023-08-06T06:14:14;92610.69;;;16.31;100.00
21658;BME280;10990;48.174;9.782;2023-08-06T06:16:41;92623.66;;;16.75;100.00
21658;BME280;10990;48.174;9.782;2023-08-06T06:19:07;92679.31;;;17.14;100.00
21658;BME280;10990;48.174;9.782;2023-08-06T06:21:34;92739.75;;;17.45;100.00
21658;BME280;10990;48.174;9.782;2023-08-06T06:24:01;92840.47;;;17.35;100.00
21658;BME280;10990;48.174;9.782;2023-08-06T06:26:29;92892.72;;;17.73;100.00
21658;BME280;10990;48.174;9.782;2023-08-06T06:28:56;92937.03;;;18.17;100.00
21658;BME280;10990;48.174;9.782;2023-08-06T06:31:23;93019.91;;;18.11;100.00
21658;BME280;10990;48.174;9.782;2023-08-06T06:33:49;93075.88;;;18.23;100.00
21658;BME280;10990;48.174;9.782;2023-08-06T06:36:17;93139.31;;;17.58;100.00
21658;BME280;10990;48.174;9.782;2023-08-06T06:38:43;93145.72;;;18.22;100.00
21658;BME280;10990;48.174;9.782;2023-08-06T06:41:10;93208.41;;;18.78;100.00
21658;BME280;10990;48.174;9.782;2023-08-06T06:43:38;93284.09;;;18.69;100.00
21658;BME280;10990;48.174;9.782;2023-08-06T06:46:05;93333.38;;;19.10;100.00
21658;BME280;10990;48.174;9.782;2023-08-06T06:48:32;93387.34;;;19.72;100.00
21658;BME280;10990;48.174;9.782;2023-08-06T06:50:59;93460.63;;;19.45;100.00
21658;BME280;10990;48.174;9.782;2023-08-06T06:53:26;93525.09;;;18.96;100.00
21658;BME280;10990;48.174;9.782;2023-08-06T06:55:53;93530.03;;;19.09;100.00
21658;BME280;10990;48.174;9.782;2023-08-06T06:58:20;93584.59;;;18.54;100.00
21658;BME280;10990;48.174;9.782;2023-08-06T07:00:48;93590.53;;;18.56;100.00
21658;BME280;10990;48.174;9.782;2023-08-06T07:03:15;93630.84;;;18.27;100.00
21658;BME280;10990;48.174;9.782;2023-08-06T07:05:43;93626.91;;;17.79;100.00
21658;BME280;10990;48.174;9.782;2023-08-06T07:08:10;93603.09;;;17.61;100.00
21658;BME280;10990;48.174;9.782;2023-08-06T07:10:37;93593.19;;;17.44;100.00
21658;BME280;10990;48.174;9.782;2023-08-06T07:13:04;93562.50;;;17.13;100.00
21658;BME280;10990;48.174;9.782;2023-08-06T07:15:31;93560.31;;;17.61;100.00
21658;BME280;10990;48.174;9.782;2023-08-06T07:17:59;93589.63;;;17.56;100.00
21658;BME280;10990;48.174;9.782;2023-08-06T07:20:26;93591.69;;;17.48;100.00
21658;BME280;10990;48.174;9.782;2023-08-06T07:22:54;93620.97;;;17.43;100.00
21658;BME280;10990;48.174;9.782;2023-08-06T07:25:21;93642.75;;;16.90;100.00
21658;BME280;10990;48.174;9.782;2023-08-06T07:27:48;93653.81;;;16.58;100.00
21658;BME280;10990;48.174;9.782;2023-08-06T07:30:14;93684.00;;;16.58;100.00
21658;BME280;10990;48.174;9.782;2023-08-06T07:32:41;93700.69;;;16.66;100.00
21658;BME280;10990;48.174;9.782;2023-08-06T07:35:09;93705.19;;;16.89;100.00
21658;BME280;10990;48.174;9.782;2023-08-06T07:37:37;93715.78;;;16.48;100.00
21658;BME280;10990;48.174;9.782;2023-08-06T07:40:05;93708.28;;;16.97;100.00
21658;BME280;10990;48.174;9.782;2023-08-06T07:42:32;93712.66;;;17.44;100.00
21658;BME280;10990;48.174;9.782;2023-08-06T07:44:58;93768.75;;;17.15;100.00
21658;BME280;10990;48.174;9.782;2023-08-06T07:47:25;93797.22;;;16.86;100.00
21658;BME280;10990;48.174;9.782;2023-08-06T07:49:52;93785.28;;;16.89;100.00
21658;BME280;10990;48.174;9.782;2023-08-06T07:52:20;93780.63;;;16.61;100.00
21658;BME280;10990;48.174;9.782;2023-08-06T07:54:47;93751.53;;;16.47;100.00
21658;BME280;10990;48.174;9.782;2023-08-06T07:57:13;93723.22;;;16.11;100.00
21658;BME280;10990;48.174;9.782;2023-08-06T07:59:40;93706.50;;;15.92;100.00
21658;BME280;10990;48.174;9.782;2023-08-06T08:02:07;93671.28;;;16.25;100.00
21658;BME280;10990;48.174;9.782;2023-08-06T08:04:34;93668.06;;;16.75;100.00
21658;BME280;10990;48.174;9.782;2023-08-06T08:07:01;93711.97;;;17.08;100.00
21658;BME280;10990;48.174;9.782;2023-08-06T08:09:29;93753.69;;;17.66;100.00
21658;BME280;10990;48.174;9.782;2023-08-06T08:11:55;93810.19;;;18.32;100.00
21658;BME280;10990;48.174;9.782;2023-08-06T08:14:23;93893.50;;;17.79;100.00
21658;BME280;10990;48.174;9.782;2023-08-06T08:16:49;93936.09;;;17.45;100.00
21658;BME280;10990;48.174;9.782;2023-08-06T08:19:16;93936.13;;;16.98;100.00
21658;BME280;10990;48.174;9.782;2023-08-06T08:21:43;93914.38;;;17.06;100.00
21658;BME280;10990;48.174;9.782;2023-08-06T08:24:09;93885.47;;;17.03;100.00
21658;BME280;10990;48.174;9.782;2023-08-06T08:26:37;93840.69;;;16.82;100.00
21658;BME280;10990;48.174;9.782;2023-08-06T08:29:04;93846.09;;;17.22;100.00
21658;BME280;10990;48.174;9.782;2023-08-06T08:31:31;93821.16;;;16.93;100.00
21658;BME280;10990;48.174;9.782;2023-08-06T08:34:04;93741.59;;;16.95;100.00
21658;BME280;10990;48.174;9.782;2023-08-06T08:36:31;93705.28;;;16.94;100.00
21658;BME280;10990;48.174;9.782;2023-08-06T08:38:57;93707.66;;;16.55;100.00
21658;BME280;10990;48.174;9.782;2023-08-06T08:41:24;93674.56;;;16.79;100.00
21658;BME280;10990;48.174;9.782;2023-08-06T08:43:53;93673.97;;;16.77;100.00
21658;BME280;10990;48.174;9.782;2023-08-06T08:46:20;93669.06;;;16.98;100.00
21658;BME280;10990;48.174;9.782;2023-08-06T08:48:46;93708.66;;;17.30;100.00
21658;BME280;10990;48.174;9.782;2023-08-06T08:51:13;93722.66;;;17.37;100.00
21658;BME280;10990;48.174;9.782;2023-08-06T08:53:42;93710.41;;;16.95;100.00
21658;BME280;10990;48.174;9.782;2023-08-06T08:56:13;93711.25;;;16.61;100.00
21658;BME280;10990;48.174;9.782;2023-08-06T08:58:40;93684.44;;;16.79;100.00
21658;BME280;10990;48.174;9.782;2023-08-06T09:01:08;93682.03;;;16.54;100.00
21658;BME280;10990;48.174;9.782;2023-08-06T09:03:36;93676.50;;;16.20;100.00
21658;BME280;10990;48.174;9.782;2023-08-06T09:06:03;93642.75;;;15.90;100.00
21658;BME280;10990;48.174;9.782;2023-08-06T09:08:34;93622.59;;;15.71;100.00
21658;BME280;10990;48.174;9.782;2023-08-06T09:11:04;93582.63;;;15.71;100.00
21658;BME280;10990;48.174;9.782;2023-08-06T09:13:31;93588.38;;;15.44;100.00
21658;BME280;10990;48.174;9.782;2023-08-06T09:15:57;93563.44;;;15.15;100.00
21658;BME280;10990;48.174;9.782;2023-08-06T09:18:29;93546.38;;;14.81;100.00
21658;BME280;10990;48.174;9.782;2023-08-06T09:20:57;93535.38;;;14.89;100.00
21658;BME280;10990;48.174;9.782;2023-08-06T09:23:27;93481.78;;;14.74;100.00
21658;BME280;10990;48.174;9.782;2023-08-06T09:25:56;93454.97;;;14.87;100.00
21658;BME280;10990;48.174;9.782;2023-08-06T09:28:22;93427.19;;;14.83;100.00
21658;BME280;10990;48.174;9.782;2023-08-06T09:30:50;93423.50;;;14.84;100.00
21658;BME280;10990;48.174;9.782;2023-08-06T09:33:22;93417.69;;;15.11;100.00
21658;BME280;10990;48.174;9.782;2023-08-06T09:35:50;93426.16;;;14.96;100.00
21658;BME280;10990;48.174;9.782;2023-08-06T09:38:18;93414.09;;;15.29;100.00
21658;BME280;10990;48.174;9.782;2023-08-06T09:40:45;93540.59;;;14.96;100.00
21658;BME280;10990;48.174;9.782;2023-08-06T09:43:12;93529.38;;;15.06;100.00
21658;BME280;10990;48.174;9.782;2023-08-06T09:45:39;93542.22;;;14.97;100.00
21658;BME280;10990;48.174;9.782;2023-08-06T09:48:07;93522.47;;;15.28;100.00
21658;BME280;10990;48.174;9.782;2023-08-06T09:50:36;93507.88;;;15.78;100.00
21658;BME280;10990;48.174;9.782;2023-08-06T09:53:05;93519.34;;;15.55;100.00
21658;BME280;10990;48.174;9.782;2023-08-06T09:55:33;93549.00;;;15.82;100.00
21658;BME280;10990;48.174;9.782;2023-08-06T09:58:00;93561.16;;;15.54;100.00
21658;BME280;10990;48.174;9.782;2023-08-06T10:00:28;93553.19;;;15.54;100.00
21658;BME280;10990;48.174;9.782;2023-08-06T10:02:59;93533.38;;;15.85;100.00
21658;BME280;10990;48.174;9.782;2023-08-06T10:05:27;93570.78;;;15.43;100.00
21658;BME280;10990;48.174;9.782;2023-08-06T10:07:55;93550.81;;;15.34;100.00
21658;BME280;10990;48.174;9.782;2023-08-06T10:10:25;93521.53;;;15.81;100.00
21658;BME280;10990;48.174;9.782;2023-08-06T10:12:55;93549.22;;;15.57;100.00
21658;BME280;10990;48.174;9.782;2023-08-06T10:15:26;93512.97;;;15.91;100.00
21658;BME280;10990;48.174;9.782;2023-08-06T10:17:56;93515.78;;;16.13;100.00
21658;BME280;10990;48.174;9.782;2023-08-06T10:20:24;93528.72;;;15.57;100.00
21658;BME280;10990;48.174;9.782;2023-08-06T10:23:01;93520.16;;;15.55;100.00
21658;BME280;10990;48.174;9.782;2023-08-06T10:25:32;93507.28;;;15.76;100.00
21658;BME280;10990;48.174;9.782;2023-08-06T10:28:00;93512.63;;;15.52;100.00
21658;BME280;10990;48.174;9.782;2023-08-06T10:30:28;93510.19;;;15.86;100.00
21658;BME280;10990;48.174;9.782;2023-08-06T10:32:56;93514.44;;;15.99;100.00
21658;BME280;10990;48.174;9.782;2023-08-06T10:35:35;93532.16;;;16.05;100.00
21658;BME280;10990;48.174;9.782;2023-08-06T10:38:07;93521.88;;;16.37;100.00
21658;BME280;10990;48.174;9.782;2023-08-06T10:40:36;93536.97;;;16.31;100.00
21658;BME280;10990;48.174;9.782;2023-08-06T10:43:05;93569.56;;;16.33;100.00
21658;BME280;10990;48.174;9.782;2023-08-06T10:45:37;93559.31;;;16.42;100.00
21658;BME280;10990;48.174;9.782;2023-08-06T10:48:04;93559.63;;;16.86;100.00
21658;BME280;10990;48.174;9.782;2023-08-06T10:50:32;93573.63;;;16.65;100.00
21658;BME280;10990;48.174;9.782;2023-08-06T10:53:04;93599.88;;;16.56;100.00
21658;BME280;10990;48.174;9.782;2023-08-06T10:55:31;93583.16;;;16.08;100.00
21658;BME280;10990;48.174;9.782;2023-08-06T10:57:59;93566.59;;;16.06;100.00
21658;BME280;10990;48.174;9.782;2023-08-06T11:00:26;93587.38;;;15.81;100.00
21658;BME280;10990;48.174;9.782;2023-08-06T11:02:53;93557.44;;;15.67;100.00
21658;BME280;10990;48.174;9.782;2023-08-06T11:05:20;93550.13;;;15.62;100.00
21658;BME280;10990;48.174;9.782;2023-08-06T11:07:47;93540.53;;;15.50;100.00
21658;BME280;10990;48.174;9.782;2023-08-06T11:10:14;93536.47;;;15.23;100.00
21658;BME280;10990;48.174;9.782;2023-08-06T11:12:41;93509.63;;;15.49;100.00
21658;BME280;10990;48.174;9.782;2023-08-06T11:15:10;93510.19;;;15.04;100.00
21658;BME280;10990;48.174;9.782;2023-08-06T11:17:39;93475.22;;;14.88;100.00
21658;BME280;10990;48.174;9.782;2023-08-06T11:20:07;93444.78;;;14.96;100.00
21658;BME280;10990;48.174;9.782;2023-08-06T11:22:36;93421.28;;;15.05;100.00
21658;BME280;10990;48.174;9.782;2023-08-06T11:25:03;93424.84;;;14.75;100.00
21658;BME280;10990;48.174;9.782;2023-08-06T11:27:30;93385.06;;;14.80;100.00
21658;BME280;10990;48.174;9.782;2023-08-06T11:29:57;93373.28;;;14.76;100.00
21658;BME280;10990;48.174;9.782;2023-08-06T11:32:25;93356.38;;;14.82;100.00
21658;BME280;10990;48.174;9.782;2023-08-06T11:34:53;93335.09;;;14.82;100.00
21658;BME280;10990;48.174;9.782;2023-08-06T11:37:21;93334.50;;;14.80;100.00
21658;BME280;10990;48.174;9.782;2023-08-06T11:39:49;93329.53;;;14.72;100.00
21658;BME280;10990;48.174;9.782;2023-08-06T11:42:16;93224.56;;;14.91;100.00
21658;BME280;10990;48.174;9.782;2023-08-06T11:44:43;93190.41;;;15.00;100.00
21658;BME280;10990;48.174;9.782;2023-08-06T11:47:13;93191.63;;;14.80;100.00
21658;BME280;10990;48.174;9.782;2023-08-06T11:49:43;93175.75;;;14.86;100.00
21658;BME280;10990;48.174;9.782;2023-08-06T11:52:14;93141.13;;;14.69;100.00
21658;BME280;10990;48.174;9.782;2023-08-06T11:54:41;93134.03;;;14.74;100.00
21658;BME280;10990;48.174;9.782;2023-08-06T11:57:08;93087.72;;;14.87;100.00
21658;BME280;10990;48.174;9.782;2023-08-06T11:59:36;93086.69;;;14.88;100.00
21658;BME280;10990;48.174;9.782;2023-08-06T12:02:04;93001.69;;;15.15;100.00
21658;BME280;10990;48.174;9.782;2023-08-06T12:04:32;92990.63;;;15.40;100.00
21658;BME280;10990;48.174;9.782;2023-08-06T12:07:06;93007.44;;;15.63;100.00
21658;BME280;10990;48.174;9.782;2023-08-06T12:09:34;92993.56;;;16.00;100.00
21658;BME280;10990;48.174;9.782;2023-08-06T12:12:02;93016.97;;;15.59;100.00
21658;BME280;10990;48.174;9.782;2023-08-06T12:14:29;93014.69;;;15.67;100.00
21658;BME280;10990;48.174;9.782;2023-08-06T12:16:56;93027.66;;;15.42;100.00
21658;BME280;10990;48.174;9.782;2023-08-06T12:19:23;93024.97;;;15.42;100.00
21658;BME280;10990;48.174;9.782;2023-08-06T12:21:49;93019.19;;;15.28;100.00
21658;BME280;10990;48.174;9.782;2023-08-06T12:24:17;93004.63;;;15.53;100.00
21658;BME280;10990;48.174;9.782;2023-08-06T12:26:44;93017.56;;;15.27;100.00
21658;BME280;10990;48.174;9.782;2023-08-06T12:29:10;93006.22;;;15.32;100.00
21658;BME280;10990;48.174;9.782;2023-08-06T12:31:37;93000.69;;;15.38;100.00
21658;BME280;10990;48.174;9.782;2023-08-06T12:34:04;92990.25;;;15.54;100.00
21658;BME280;10990;48.174;9.782;2023-08-06T12:36:30;92987.50;;;15.65;100.00
21658;BME280;10990;48.174;9.782;2023-08-06T12:38:57;93006.59;;;15.79;100.00
21658;BME280;10990;48.174;9.782;2023-08-06T12:41:25;93032.34;;;15.68;100.00
21658;BME280;10990;48.174;9.782;2023-08-06T12:43:52;93054.03;;;15.43;100.00
21658;BME280;10990;48.174;9.782;2023-08-06T12:46:19;93048.16;;;15.24;100.00
21658;BME280;10990;48.174;9.782;2023-08-06T12:48:45;93049.44;;;15.22;100.00
21658;BME280;10990;48.174;9.782;2023-08-06T12:51:11;93029.09;;;15.50;100.00
21658;BME280;10990;48.174;9.782;2023-08-06T12:53:38;93037.00;;;15.44;100.00